Manzanillo Airport, Mexico

8:12 PM CDT on September 02, 2014 (GMT -0500)
Playa De Oro International | Change Station
CLOSE
Current Station
Airport
Location: Manzanillo Airport,
Elevation: 26 ft
Nearby Weather Stations

Elev 26 ft 19.14 °N, 104.56 °W | Updated 32 minutes ago

Light Rain
Light Rain
77 °F
Feels Like 77 °F
N
21
Wind Variable Wind from East

Today
High -- | Low -- °F
--% Chance of Precip.
Yesterday
High -- | Low -- °F
Precip. -- in
7:43 AM 8:12 PM
First Quarter, 57% visible
Pressure 29.75 in
Visibility 4.0 miles
Clouds Mostly Cloudy 1000 ft
Mostly Cloudy 6000 ft
Dew Point 75 °F
Humidity 94%
Rainfall 0.00 in
Snow Depth Not available.
UV 0 out of 12
Pollen Not available.
Air Quality Not available.
Flu Activity Not available.
METAR MMZO 030040Z 09018KT 4SM -RA BKN010 BKN060 25/24 A2975 RMK 8/87/

More Conditions Fewer Conditions

Pressure 29.75 in
Visibility 4.0 miles
Clouds Mostly Cloudy 1000 ft
Mostly Cloudy 6000 ft
Dew Point 75 °F
Humidity 94%
Rainfall 0.00 in
Snow Depth Not available.
UV 0 out of 12
Pollen Not available.
Air Quality Not available.
Flu Activity Not available.
METAR MMZO 030040Z 09018KT 4SM -RA BKN010 BKN060 25/24 A2975 RMK 8/87/

More Conditions Fewer Conditions

10-Day Weather Forecast

Almanac

Astronomy

Sep. 02, 2014 Rise Set
Actual Time 7:43 AM CDT 8:12 PM CDT
Civil Twilight 7:21 AM CDT 8:34 PM CDT
Nautical Twilight 6:55 AM CDT 9:00 PM CDT
Astronomical Twilight 6:29 AM CDT 9:26 PM CDT
Moon 2:33 PM CDT (9/2) 1:11 AM CDT (9/2)
Length of Visible Light 13h 12m
Length of Day
12h 28m
Tomorrow will be 1m 3s shorter.
First Quarter, 57% of the Moon is Illuminated
Today
First Quarter
Sep 8
Full
Sep 15
Last Quarter
Sep 24
New
Oct 1
First Quarter

Today's Extremes

Country Highs Country Lows

Community

WunderPhotos

Upload Photos

1,749,826 photos uploaded!

Nearby

Snow Depth

Not available.

Earthquake Activity

City Distance Mag. Time & Date
No recent earthquake activity has been reported nearby.
Minimum magnitude displayed is 2.5.

Coastal Water Temperatures

Place Temperature
No Stations Reporting

Nearby Weather Stations